createdAt,value
2017-08-07T00:01:04.988Z,14.61
2017-08-07T00:02:14.816Z,14.5
2017-08-07T00:03:24.667Z,14.61
2017-08-07T00:04:33.563Z,14.62
2017-08-07T00:05:43.421Z,14.62
2017-08-07T00:06:52.625Z,14.68
2017-08-07T00:08:02.163Z,14.51
2017-08-07T00:09:11.694Z,14.62
2017-08-07T00:10:20.900Z,14.54
2017-08-07T00:11:30.109Z,14.64
2017-08-07T00:12:39.328Z,14.62
2017-08-07T00:13:49.330Z,14.54
2017-08-07T00:14:58.539Z,14.7
2017-08-07T00:16:08.067Z,14.69
2017-08-07T00:17:17.601Z,14.51
2017-08-07T00:18:27.448Z,14.55
2017-08-07T00:19:37.412Z,14.52
2017-08-07T00:20:46.297Z,14.62
2017-08-07T00:21:55.510Z,14.6
2017-08-07T00:23:05.038Z,14.52
2017-08-07T00:24:14.570Z,14.61
2017-08-07T00:25:24.253Z,14.55
2017-08-07T00:26:34.113Z,14.52
2017-08-07T00:27:43.642Z,14.52
2017-08-07T00:28:52.862Z,14.57
2017-08-07T00:30:02.712Z,14.58
2017-08-07T00:31:12.462Z,14.51
2017-08-07T00:32:22.654Z,14.51
2017-08-07T00:33:32.509Z,14.5
2017-08-07T00:34:42.360Z,14.54
2017-08-07T00:35:51.255Z,14.46
2017-08-07T00:37:00.833Z,14.43
2017-08-07T00:38:10.685Z,14.51
2017-08-07T00:39:19.564Z,14.52
2017-08-07T00:40:29.097Z,14.4
2017-08-07T00:41:38.950Z,14.39
2017-08-07T00:42:48.305Z,14.29
2017-08-07T00:43:57.186Z,14.4
2017-08-07T00:45:06.711Z,14.37
2017-08-07T00:46:16.239Z,14.27
2017-08-07T00:47:25.448Z,14.32
2017-08-07T00:48:34.955Z,14.25
2017-08-07T00:49:44.163Z,14.29
2017-08-07T00:50:53.361Z,14.28
2017-08-07T00:52:02.241Z,14.22
2017-08-07T00:53:12.419Z,14.25
2017-08-07T00:54:22.272Z,14.29
2017-08-07T00:55:31.478Z,14.24
2017-08-07T00:56:40.371Z,14.24
2017-08-07T00:57:49.256Z,14.2
2017-08-07T00:58:58.461Z,14.17
2017-08-07T01:00:08.093Z,14.12
2017-08-07T01:01:17.673Z,14.15
2017-08-07T01:02:27.200Z,14.21
2017-08-07T01:03:36.730Z,14.14
2017-08-07T01:04:45.931Z,14.1
2017-08-07T01:05:55.605Z,14.15
2017-08-07T01:07:05.135Z,14.1
2017-08-07T01:08:14.988Z,14.03
2017-08-07T01:09:24.189Z,14.1
2017-08-07T01:10:33.396Z,14.09
2017-08-07T01:11:42.927Z,14.06
2017-08-07T01:12:51.811Z,14.07
2017-08-07T01:14:01.660Z,14.06
2017-08-07T01:15:11.513Z,14.02
2017-08-07T01:16:21.040Z,14.03
2017-08-07T01:17:30.914Z,13.97
2017-08-07T01:18:39.795Z,14
2017-08-07T01:19:49.646Z,14.02
2017-08-07T01:20:58.853Z,13.89
2017-08-07T01:22:07.735Z,13.97
2017-08-07T01:23:17.312Z,13.89
2017-08-07T01:24:26.836Z,13.96
2017-08-07T01:25:36.041Z,13.89
2017-08-07T01:26:45.889Z,13.88
2017-08-07T01:27:55.423Z,13.84
2017-08-07T01:29:05.099Z,13.85
2017-08-07T01:30:14.631Z,13.85
2017-08-07T01:31:23.520Z,13.85
2017-08-07T01:32:33.044Z,13.84
2017-08-07T01:33:42.245Z,13.82
2017-08-07T01:34:51.502Z,13.81
2017-08-07T01:36:01.026Z,13.77
2017-08-07T01:37:10.235Z,13.69
2017-08-07T01:38:19.446Z,13.78
2017-08-07T01:39:28.653Z,13.71
2017-08-07T01:40:37.531Z,13.64
2017-08-07T01:41:47.391Z,13.64
2017-08-07T01:42:56.271Z,13.71
2017-08-07T01:44:06.123Z,13.67
2017-08-07T01:45:15.327Z,13.69
2017-08-07T01:46:25.432Z,13.66
2017-08-07T01:47:34.964Z,13.63
2017-08-07T01:48:43.846Z,13.52
2017-08-07T01:49:53.373Z,13.63
2017-08-07T01:51:02.255Z,13.6
2017-08-07T01:52:11.939Z,13.59
2017-08-07T01:53:21.143Z,13.6
2017-08-07T01:54:30.668Z,13.57
2017-08-07T01:55:40.211Z,13.52
2017-08-07T01:56:49.413Z,13.48
2017-08-07T01:57:59.417Z,13.41
2017-08-07T01:59:08.950Z,13.52
2017-08-07T02:00:18.489Z,13.51
2017-08-07T02:01:28.344Z,13.46
2017-08-07T02:02:37.549Z,13.54
2017-08-07T02:03:46.533Z,13.52
2017-08-07T02:04:55.742Z,13.46
2017-08-07T02:06:04.949Z,13.46
2017-08-07T02:07:14.474Z,13.41
2017-08-07T02:08:24.322Z,13.41
2017-08-07T02:09:33.849Z,13.42
2017-08-07T02:10:44.021Z,13.38
2017-08-07T02:11:53.876Z,13.38
2017-08-07T02:13:03.075Z,13.29
2017-08-07T02:14:12.285Z,13.3
2017-08-07T02:15:21.689Z,13.36
2017-08-07T02:16:30.891Z,13.39
2017-08-07T02:17:40.096Z,13.36
2017-08-07T02:18:49.950Z,13.32
2017-08-07T02:19:59.473Z,13.28
2017-08-07T02:21:09.626Z,13.32
2017-08-07T02:22:18.832Z,13.32
2017-08-07T02:23:28.366Z,13.25
2017-08-07T02:24:37.570Z,13.25
2017-08-07T02:25:46.772Z,13.23
2017-08-07T02:26:56.703Z,13.32
2017-08-07T02:28:06.231Z,13.23
2017-08-07T02:29:15.434Z,13.25
2017-08-07T02:30:24.962Z,13.17
2017-08-07T02:31:34.491Z,13.17
2017-08-07T02:32:44.117Z,13.17
2017-08-07T02:33:53.972Z,13.17
2017-08-07T02:35:03.827Z,13.1
2017-08-07T02:36:13.034Z,13.15
2017-08-07T02:37:23.205Z,13.12
2017-08-07T02:38:32.085Z,13.08
2017-08-07T02:39:41.937Z,13.15
2017-08-07T02:40:51.476Z,13.07
2017-08-07T02:42:00.369Z,13.1
2017-08-07T02:43:10.550Z,13.03
2017-08-07T02:44:19.917Z,13.07
2017-08-07T02:45:29.452Z,13.01
2017-08-07T02:46:39.003Z,13.03
2017-08-07T02:47:48.215Z,13.01
2017-08-07T02:48:57.095Z,13
2017-08-07T02:50:06.746Z,13
2017-08-07T02:51:16.273Z,12.95
2017-08-07T02:52:25.802Z,12.96
2017-08-07T02:53:34.683Z,12.93
2017-08-07T02:54:44.361Z,12.9
2017-08-07T02:55:53.727Z,12.93
2017-08-07T02:57:03.257Z,12.96
2017-08-07T02:58:12.782Z,12.92
2017-08-07T02:59:22.312Z,12.93
2017-08-07T03:00:31.193Z,12.9
2017-08-07T03:01:41.195Z,12.9
2017-08-07T03:02:50.721Z,12.89
2017-08-07T03:04:00.250Z,12.93
2017-08-07T03:05:10.106Z,12.79
2017-08-07T03:06:18.991Z,12.85
2017-08-07T03:07:28.999Z,12.85
2017-08-07T03:08:38.846Z,12.85
2017-08-07T03:09:48.054Z,12.83
2017-08-07T03:10:57.578Z,12.92
2017-08-07T03:12:07.110Z,12.82
2017-08-07T03:13:16.636Z,12.85
2017-08-07T03:14:25.842Z,12.85
2017-08-07T03:15:35.048Z,12.89
2017-08-07T03:16:44.257Z,12.96
2017-08-07T03:17:53.459Z,12.79
2017-08-07T03:19:03.305Z,12.75
2017-08-07T03:20:13.157Z,12.77
2017-08-07T03:21:23.010Z,12.78
2017-08-07T03:22:32.860Z,12.79
2017-08-07T03:23:42.388Z,12.87
2017-08-07T03:24:51.425Z,12.75
2017-08-07T03:26:00.951Z,12.75
2017-08-07T03:27:11.125Z,12.83
2017-08-07T03:28:20.984Z,12.82
2017-08-07T03:29:30.184Z,12.77
2017-08-07T03:30:39.870Z,12.78
2017-08-07T03:31:49.087Z,12.74
2017-08-07T03:32:58.934Z,12.68
2017-08-07T03:34:08.463Z,12.77
2017-08-07T03:35:17.994Z,12.7
2017-08-07T03:36:27.517Z,12.68
2017-08-07T03:37:36.722Z,12.7
2017-08-07T03:38:45.616Z,12.67
2017-08-07T03:39:55.142Z,12.7
2017-08-07T03:41:05.317Z,12.7
2017-08-07T03:42:15.961Z,12.7
2017-08-07T03:43:25.493Z,12.62
2017-08-07T03:44:34.373Z,12.57
2017-08-07T03:45:44.222Z,12.49
2017-08-07T03:46:53.749Z,12.53
2017-08-07T03:48:03.201Z,12.53
2017-08-07T03:49:12.731Z,12.64
2017-08-07T03:50:22.593Z,12.53
2017-08-07T03:51:32.121Z,12.52
2017-08-07T03:52:41.979Z,12.56
2017-08-07T03:53:51.754Z,12.5
2017-08-07T03:55:00.958Z,12.6
2017-08-07T03:56:10.809Z,12.52
2017-08-07T03:57:20.343Z,12.6
2017-08-07T03:58:30.195Z,12.6
2017-08-07T03:59:40.196Z,12.59
2017-08-07T04:00:49.410Z,12.65
2017-08-07T04:01:58.936Z,12.64
2017-08-07T04:03:08.463Z,12.54
2017-08-07T04:04:17.353Z,12.6
2017-08-07T04:05:26.240Z,12.65
2017-08-07T04:06:36.420Z,12.62
2017-08-07T04:07:46.273Z,12.57
2017-08-07T04:08:55.805Z,12.57
2017-08-07T04:10:05.009Z,12.6
2017-08-07T04:11:14.961Z,12.59
2017-08-07T04:12:24.816Z,12.54
2017-08-07T04:13:34.663Z,12.56
2017-08-07T04:14:43.870Z,12.5
2017-08-07T04:15:53.407Z,12.54
2017-08-07T04:17:03.556Z,12.62
2017-08-07T04:18:13.092Z,12.6
2017-08-07T04:19:22.293Z,12.53
2017-08-07T04:20:31.496Z,12.53
2017-08-07T04:21:41.351Z,12.6
2017-08-07T04:22:50.932Z,12.64
2017-08-07T04:24:01.109Z,12.54
2017-08-07T04:25:10.642Z,12.53
2017-08-07T04:26:20.497Z,12.65
2017-08-07T04:27:30.028Z,12.7
2017-08-07T04:28:39.710Z,12.7
2017-08-07T04:29:48.917Z,12.67
2017-08-07T04:30:58.443Z,12.68
2017-08-07T04:32:07.970Z,12.67
2017-08-07T04:33:17.177Z,12.68
2017-08-07T04:34:27.185Z,12.7
2017-08-07T04:35:36.393Z,12.67
2017-08-07T04:36:46.253Z,12.67
2017-08-07T04:37:55.791Z,12.65
2017-08-07T04:39:05.321Z,12.75
2017-08-07T04:40:15.695Z,12.74
2017-08-07T04:41:25.871Z,12.7
2017-08-07T04:42:35.720Z,12.78
2017-08-07T04:43:45.593Z,12.7
2017-08-07T04:44:55.462Z,12.71
2017-08-07T04:46:05.313Z,12.79
2017-08-07T04:47:15.164Z,12.78
2017-08-07T04:48:25.015Z,12.78
2017-08-07T04:49:34.552Z,12.75
2017-08-07T04:50:44.404Z,12.82
2017-08-07T04:51:53.283Z,12.77
2017-08-07T04:53:02.487Z,12.74
2017-08-07T04:54:12.017Z,12.89
2017-08-07T04:55:21.558Z,12.9
2017-08-07T04:56:30.783Z,12.83
2017-08-07T04:57:40.137Z,12.9
2017-08-07T04:58:49.989Z,12.82
2017-08-07T04:59:59.193Z,12.86
2017-08-07T05:01:09.369Z,12.87
2017-08-07T05:02:19.223Z,12.92
2017-08-07T05:03:28.801Z,12.93
2017-08-07T05:04:38.652Z,12.95
2017-08-07T05:05:47.856Z,12.95
2017-08-07T05:06:57.071Z,13.01
2017-08-07T05:08:06.291Z,13
2017-08-07T05:09:15.484Z,13.07
2017-08-07T05:10:25.015Z,13.05
2017-08-07T05:11:34.221Z,13.04
2017-08-07T05:12:44.721Z,13.05
2017-08-07T05:13:54.252Z,13.19
2017-08-07T05:15:03.610Z,13.14
2017-08-07T05:16:13.464Z,13.28
2017-08-07T05:17:23.003Z,13.28
2017-08-07T05:18:32.214Z,13.29
2017-08-07T05:19:41.742Z,13.28
2017-08-07T05:20:51.001Z,13.26
2017-08-07T05:22:00.857Z,13.3
2017-08-07T05:23:10.394Z,13.33
2017-08-07T05:24:19.600Z,13.38
2017-08-07T05:25:29.124Z,13.46
2017-08-07T05:26:38.799Z,13.44
2017-08-07T05:27:48.652Z,13.45
2017-08-07T05:28:58.830Z,13.48
2017-08-07T05:30:09.015Z,13.45
2017-08-07T05:31:18.222Z,13.54
2017-08-07T05:32:28.057Z,13.46
2017-08-07T05:33:36.938Z,13.52
2017-08-07T05:34:45.822Z,13.48
2017-08-07T05:35:54.706Z,13.45
2017-08-07T05:37:04.243Z,13.54
2017-08-07T05:38:13.449Z,13.52
2017-08-07T05:39:23.310Z,13.62
2017-08-07T05:40:33.495Z,13.52
2017-08-07T05:41:42.705Z,13.62
2017-08-07T05:42:51.913Z,13.7
2017-08-07T05:44:02.171Z,13.71
2017-08-07T05:45:12.024Z,13.67
2017-08-07T05:46:21.553Z,13.81
2017-08-07T05:47:30.761Z,13.77
2017-08-07T05:48:40.291Z,13.78
2017-08-07T05:49:49.554Z,13.78
2017-08-07T05:50:58.439Z,13.81
2017-08-07T05:52:07.652Z,13.84
2017-08-07T05:53:17.234Z,13.89
2017-08-07T05:54:27.084Z,13.88
2017-08-07T05:55:37.087Z,13.88
2017-08-07T05:56:46.301Z,14.02
2017-08-07T05:57:55.845Z,13.99
2017-08-07T05:59:05.702Z,14.03
2017-08-07T06:00:15.882Z,14.06
2017-08-07T06:01:25.989Z,14.09
2017-08-07T06:02:35.538Z,14.07
2017-08-07T06:03:44.748Z,14.14
2017-08-07T06:04:53.641Z,14.2
2017-08-07T06:06:02.849Z,14.15
2017-08-07T06:07:12.377Z,14.15
2017-08-07T06:08:22.282Z,14.18
2017-08-07T06:09:31.879Z,14.24
2017-08-07T06:10:41.742Z,14.28
2017-08-07T06:11:50.956Z,14.27
2017-08-07T06:13:00.162Z,14.28
2017-08-07T06:14:09.049Z,14.32
2017-08-07T06:15:18.909Z,14.32
2017-08-07T06:16:28.441Z,14.28
2017-08-07T06:17:37.663Z,14.43
2017-08-07T06:18:46.547Z,14.43
2017-08-07T06:19:56.724Z,14.45
2017-08-07T06:21:06.577Z,14.52
2017-08-07T06:22:15.782Z,14.54
2017-08-07T06:23:25.630Z,14.57
2017-08-07T06:24:35.487Z,14.51
2017-08-07T06:25:45.346Z,14.58
2017-08-07T06:26:54.877Z,14.64
2017-08-07T06:28:03.768Z,14.61
2017-08-07T06:29:13.296Z,14.7
2017-08-07T06:30:22.828Z,14.75
2017-08-07T06:31:32.047Z,14.77
2017-08-07T06:32:41.307Z,14.81
2017-08-07T06:33:50.522Z,14.91
2017-08-07T06:35:00.374Z,14.89
2017-08-07T06:36:09.909Z,14.98
2017-08-07T06:37:19.448Z,15.01
2017-08-07T06:38:29.454Z,14.96
2017-08-07T06:39:38.992Z,15.06
2017-08-07T06:40:48.849Z,15.06
2017-08-07T06:41:58.712Z,15.13
2017-08-07T06:43:08.564Z,15.2
2017-08-07T06:44:17.508Z,15.14
2017-08-07T06:45:27.036Z,15.25
2017-08-07T06:46:36.569Z,15.21
2017-08-07T06:47:45.773Z,15.28
2017-08-07T06:48:54.656Z,15.25
2017-08-07T06:50:04.611Z,15.41
2017-08-07T06:51:14.476Z,15.31
2017-08-07T06:52:23.684Z,15.47
2017-08-07T06:53:33.233Z,15.5
2017-08-07T06:54:43.408Z,15.51
2017-08-07T06:55:53.189Z,15.56
2017-08-07T06:57:02.718Z,15.53
2017-08-07T06:58:13.222Z,15.62
2017-08-07T06:59:23.081Z,15.74
2017-08-07T07:00:32.290Z,15.84
2017-08-07T07:01:41.977Z,15.93
2017-08-07T07:02:51.185Z,16.01
2017-08-07T07:04:00.408Z,16.01
2017-08-07T07:05:09.944Z,15.97
2017-08-07T07:06:19.802Z,15.97
2017-08-07T07:07:29.735Z,15.92
2017-08-07T07:08:39.069Z,16.21
2017-08-07T07:09:48.481Z,16.21
2017-08-07T07:10:57.719Z,16.25
2017-08-07T07:12:07.253Z,16.24
2017-08-07T07:13:17.034Z,16.31
2017-08-07T07:14:26.567Z,16.5
2017-08-07T07:15:36.103Z,16.49
2017-08-07T07:16:46.290Z,16.58
2017-08-07T07:17:56.160Z,16.67
2017-08-07T07:19:06.490Z,16.66
2017-08-07T07:20:16.343Z,16.73
2017-08-07T07:21:26.202Z,16.68
2017-08-07T07:22:35.415Z,16.7
2017-08-07T07:23:44.950Z,16.75
2017-08-07T07:24:53.991Z,16.78
2017-08-07T07:26:02.881Z,16.91
2017-08-07T07:27:12.093Z,16.89
2017-08-07T07:28:21.298Z,16.96
2017-08-07T07:29:30.517Z,16.98
2017-08-07T07:30:39.875Z,17.08
2017-08-07T07:31:48.763Z,17.19
2017-08-07T07:32:58.293Z,17.19
2017-08-07T07:34:07.850Z,17.16
2017-08-07T07:35:17.057Z,17.33
2017-08-07T07:36:26.997Z,17.3
2017-08-07T07:37:37.185Z,17.36
2017-08-07T07:38:46.730Z,17.41
2017-08-07T07:39:56.598Z,17.48
2017-08-07T07:41:06.455Z,17.48
2017-08-07T07:42:16.688Z,17.63
2017-08-07T07:43:26.866Z,17.51
2017-08-07T07:44:36.733Z,17.56
2017-08-07T07:45:45.957Z,17.7
2017-08-07T07:46:55.175Z,17.71
2017-08-07T07:48:05.506Z,17.87
2017-08-07T07:49:15.411Z,17.93
2017-08-07T07:50:24.617Z,17.93
2017-08-07T07:51:34.470Z,17.99
2017-08-07T07:52:44.331Z,18.08
2017-08-07T07:53:53.568Z,18.1
2017-08-07T07:55:03.101Z,18.25
2017-08-07T07:56:11.986Z,18.3
2017-08-07T07:57:21.196Z,18.32
2017-08-07T07:58:30.404Z,18.35
2017-08-07T07:59:40.088Z,18.41
2017-08-07T08:00:49.298Z,18.41
2017-08-07T08:01:58.838Z,18.45
2017-08-07T08:03:08.371Z,18.52
2017-08-07T08:04:17.252Z,18.57
2017-08-07T08:05:26.609Z,18.62
2017-08-07T08:06:36.485Z,18.6
2017-08-07T08:07:46.025Z,18.52
2017-08-07T08:08:55.235Z,18.75
2017-08-07T08:10:05.091Z,18.8
2017-08-07T08:11:14.999Z,18.87
2017-08-07T08:12:24.206Z,18.99
2017-08-07T08:13:33.739Z,18.95
2017-08-07T08:14:43.592Z,19.06
2017-08-07T08:15:52.804Z,19.18
2017-08-07T08:17:02.068Z,19.14
2017-08-07T08:18:11.940Z,19.18
2017-08-07T08:19:21.160Z,19.19
2017-08-07T08:20:30.699Z,19.19
2017-08-07T08:21:39.910Z,19.4
2017-08-07T08:22:49.435Z,19.4
2017-08-07T08:23:58.970Z,19.47
2017-08-07T08:25:08.834Z,19.46
2017-08-07T08:26:18.364Z,19.56
2017-08-07T08:27:27.575Z,19.54
2017-08-07T08:28:36.620Z,19.55
2017-08-07T08:29:45.838Z,19.62
2017-08-07T08:30:55.373Z,19.62
2017-08-07T08:32:04.907Z,19.73
2017-08-07T08:33:14.446Z,19.71
2017-08-07T08:34:23.428Z,19.76
2017-08-07T08:35:32.325Z,19.8
2017-08-07T08:36:41.533Z,19.8
2017-08-07T08:37:50.753Z,19.91
2017-08-07T08:38:59.640Z,19.91
2017-08-07T08:40:09.476Z,20.06
2017-08-07T08:41:19.011Z,20.02
2017-08-07T08:42:28.219Z,20.05
2017-08-07T08:43:37.439Z,20.13
2017-08-07T08:44:46.325Z,20.2
2017-08-07T08:45:56.159Z,20.16
2017-08-07T08:47:05.698Z,20.05
2017-08-07T08:48:14.923Z,20.03
2017-08-07T08:49:24.142Z,20.17
2017-08-07T08:50:33.996Z,20.21
2017-08-07T08:51:43.254Z,20.29
2017-08-07T08:52:52.464Z,20.26
2017-08-07T08:54:02.322Z,20.33
2017-08-07T08:55:11.532Z,20.39
2017-08-07T08:56:20.422Z,20.39
2017-08-07T08:57:30.256Z,20.29
2017-08-07T08:58:39.789Z,20.33
2017-08-07T08:59:49.646Z,20.29
2017-08-07T09:00:59.505Z,20.41
2017-08-07T09:02:09.050Z,20.36
2017-08-07T09:03:19.239Z,20.35
2017-08-07T09:04:28.448Z,20.35
2017-08-07T09:05:37.673Z,20.55
2017-08-07T09:06:46.560Z,20.54
2017-08-07T09:07:56.107Z,20.73
2017-08-07T09:09:05.691Z,20.74
2017-08-07T09:10:15.874Z,20.94
2017-08-07T09:11:25.407Z,20.95
2017-08-07T09:12:34.942Z,20.94
2017-08-07T09:13:43.827Z,21.06
2017-08-07T09:14:52.814Z,20.98
2017-08-07T09:16:02.672Z,21.04
2017-08-07T09:17:12.209Z,21.01
2017-08-07T09:18:21.754Z,21.09
2017-08-07T09:19:30.963Z,21.03
2017-08-07T09:20:40.662Z,20.97
2017-08-07T09:21:49.869Z,20.95
2017-08-07T09:22:59.399Z,21.06
2017-08-07T09:24:08.617Z,21.03
2017-08-07T09:25:18.475Z,21.13
2017-08-07T09:26:27.937Z,21.31
2017-08-07T09:27:37.487Z,21.32
2017-08-07T09:28:47.365Z,21.25
2017-08-07T09:29:57.226Z,21.27
2017-08-07T09:31:06.765Z,21.22
2017-08-07T09:32:16.131Z,21.31
2017-08-07T09:33:25.664Z,21.34
2017-08-07T09:34:35.522Z,21.49
2017-08-07T09:35:44.404Z,21.53
2017-08-07T09:36:53.943Z,21.59
2017-08-07T09:38:04.077Z,21.47
2017-08-07T09:39:13.933Z,21.61
2017-08-07T09:40:23.143Z,21.58
2017-08-07T09:41:33.006Z,21.61
2017-08-07T09:42:42.537Z,21.62
2017-08-07T09:43:52.124Z,21.65
2017-08-07T09:45:02.301Z,21.84
2017-08-07T09:46:11.846Z,21.8
2017-08-07T09:47:21.700Z,21.74
2017-08-07T09:48:30.909Z,21.94
2017-08-07T09:49:39.854Z,21.88
2017-08-07T09:50:49.072Z,21.99
2017-08-07T09:51:57.958Z,21.96
2017-08-07T09:53:07.498Z,22
2017-08-07T09:54:16.705Z,21.96
2017-08-07T09:55:25.843Z,21.99
2017-08-07T09:56:34.730Z,21.99
2017-08-07T09:57:44.263Z,21.94
2017-08-07T09:58:54.126Z,22.02
2017-08-07T10:00:03.334Z,21.99
2017-08-07T10:01:12.373Z,22.05
2017-08-07T10:02:22.555Z,21.98
2017-08-07T10:03:32.093Z,22.14
2017-08-07T10:04:41.622Z,22.1
2017-08-07T10:05:51.160Z,22.18
2017-08-07T10:07:01.073Z,22.3
2017-08-07T10:08:10.936Z,22.27
2017-08-07T10:09:21.128Z,22.27
2017-08-07T10:10:30.671Z,22.09
2017-08-07T10:11:40.202Z,22.09
2017-08-07T10:12:49.244Z,22.07
2017-08-07T10:13:58.777Z,22.18
2017-08-07T10:15:07.997Z,22.15
2017-08-07T10:16:17.214Z,22.21
2017-08-07T10:17:26.426Z,22.17
2017-08-07T10:18:35.416Z,22.17
2017-08-07T10:19:44.303Z,22.2
2017-08-07T10:20:53.835Z,22.28
2017-08-07T10:22:03.045Z,22.43
2017-08-07T10:23:12.264Z,22.47
2017-08-07T10:24:21.857Z,22.62
2017-08-07T10:25:30.748Z,22.83
2017-08-07T10:26:39.963Z,22.77
2017-08-07T10:27:49.506Z,22.76
2017-08-07T10:28:58.717Z,22.76
2017-08-07T10:30:08.724Z,22.67
2017-08-07T10:31:17.943Z,22.68
2017-08-07T10:32:27.477Z,22.64
2017-08-07T10:33:37.012Z,22.65
2017-08-07T10:34:46.543Z,22.67
2017-08-07T10:35:55.908Z,22.72
2017-08-07T10:37:05.119Z,22.76
2017-08-07T10:38:14.653Z,22.82
2017-08-07T10:39:24.514Z,22.75
2017-08-07T10:40:34.050Z,22.86
2017-08-07T10:41:43.890Z,22.76
2017-08-07T10:42:53.446Z,22.85
2017-08-07T10:44:03.307Z,23.01
2017-08-07T10:45:12.521Z,23.15
2017-08-07T10:46:22.071Z,23.04
2017-08-07T10:47:31.332Z,23.09
2017-08-07T10:48:40.542Z,23.01
2017-08-07T10:49:50.081Z,23.1
2017-08-07T10:50:59.296Z,23.23
2017-08-07T10:52:09.166Z,23.39
2017-08-07T10:53:18.757Z,23.6
2017-08-07T10:54:27.977Z,23.54
2017-08-07T10:55:38.159Z,23.63
2017-08-07T10:56:47.369Z,23.65
2017-08-07T10:57:57.228Z,23.6
2017-08-07T10:59:06.959Z,23.61
2017-08-07T11:00:16.513Z,23.54
2017-08-07T11:01:25.408Z,23.61
2017-08-07T11:02:34.623Z,23.65
2017-08-07T11:03:44.163Z,23.76
2017-08-07T11:04:53.049Z,23.78
2017-08-07T11:06:02.260Z,23.83
2017-08-07T11:07:11.796Z,23.75
2017-08-07T11:08:21.659Z,23.73
2017-08-07T11:09:30.550Z,23.7
2017-08-07T11:10:39.812Z,23.68
2017-08-07T11:11:49.352Z,23.61
2017-08-07T11:12:58.572Z,23.61
2017-08-07T11:14:07.462Z,23.65
2017-08-07T11:15:16.997Z,23.58
2017-08-07T11:16:26.259Z,23.61
2017-08-07T11:17:35.792Z,23.65
2017-08-07T11:18:45.980Z,23.55
2017-08-07T11:19:55.202Z,23.73
2017-08-07T11:21:05.062Z,23.97
2017-08-07T11:22:14.697Z,24.08
2017-08-07T11:23:24.260Z,24.15
2017-08-07T11:24:33.480Z,24.16
2017-08-07T11:25:43.338Z,24.27
2017-08-07T11:26:52.877Z,24.4
2017-08-07T11:28:02.298Z,24.4
2017-08-07T11:29:12.192Z,24.27
2017-08-07T11:30:21.750Z,24.22
2017-08-07T11:31:31.612Z,24.16
2017-08-07T11:32:40.513Z,24.18
2017-08-07T11:33:49.880Z,24.12
2017-08-07T11:34:59.103Z,24.2
2017-08-07T11:36:08.311Z,24.16
2017-08-07T11:37:17.201Z,24.3
2017-08-07T11:38:26.736Z,24.31
2017-08-07T11:39:37.166Z,24.32
2017-08-07T11:40:46.388Z,24.21
2017-08-07T11:41:55.603Z,24.24
2017-08-07T11:43:05.139Z,24.15
2017-08-07T11:44:14.674Z,23.95
2017-08-07T11:45:23.669Z,23.98
2017-08-07T11:46:33.534Z,23.91
2017-08-07T11:47:43.068Z,23.78
2017-08-07T11:48:52.606Z,23.75
2017-08-07T11:50:02.465Z,23.69
2017-08-07T11:51:12.319Z,23.69
2017-08-07T11:52:21.207Z,23.76
2017-08-07T11:53:31.065Z,23.91
2017-08-07T11:54:40.281Z,23.94
2017-08-07T11:55:49.174Z,23.9
2017-08-07T11:56:58.758Z,24.18
2017-08-07T11:58:08.297Z,24.3
2017-08-07T11:59:17.519Z,24.37
2017-08-07T12:00:26.733Z,24.37
2017-08-07T12:01:36.273Z,24.45
2017-08-07T12:02:46.537Z,24.62
2017-08-07T12:03:56.093Z,24.73
2017-08-07T12:05:05.632Z,24.87
2017-08-07T12:06:15.171Z,24.88
2017-08-07T12:07:24.713Z,25.15
2017-08-07T12:08:34.164Z,25.25
2017-08-07T12:09:44.029Z,25.3
2017-08-07T12:10:53.568Z,25.32
2017-08-07T12:12:03.109Z,25.39
2017-08-07T12:13:12.656Z,25.36
2017-08-07T12:14:22.215Z,25.45
2017-08-07T12:15:31.436Z,25.46
2017-08-07T12:16:40.658Z,25.58
2017-08-07T12:17:49.559Z,25.5
2017-08-07T12:18:58.778Z,25.43
2017-08-07T12:20:08.147Z,25.35
2017-08-07T12:21:17.686Z,25.45
2017-08-07T12:22:26.905Z,25.52
2017-08-07T12:23:36.450Z,25.54
2017-08-07T12:24:46.042Z,25.6
2017-08-07T12:25:55.893Z,25.77
2017-08-07T12:27:05.115Z,25.7
2017-08-07T12:28:14.983Z,25.67
2017-08-07T12:29:24.202Z,25.77
2017-08-07T12:30:33.437Z,25.64
2017-08-07T12:31:43.687Z,25.46
2017-08-07T12:32:52.590Z,25.4
2017-08-07T12:34:01.813Z,25.39
2017-08-07T12:35:11.034Z,25.39
2017-08-07T12:36:20.909Z,25.61
2017-08-07T12:37:30.432Z,25.75
2017-08-07T12:38:39.979Z,25.69
2017-08-07T12:39:49.528Z,25.77
2017-08-07T12:40:59.404Z,25.88
2017-08-07T12:42:08.953Z,26.12
2017-08-07T12:43:19.028Z,26.12
2017-08-07T12:44:28.574Z,26.36
2017-08-07T12:45:38.445Z,26.5
2017-08-07T12:46:47.687Z,26.51
2017-08-07T12:47:57.242Z,26.54
2017-08-07T12:49:07.272Z,26.47
2017-08-07T12:50:17.328Z,26.47
2017-08-07T12:51:26.899Z,26.44
2017-08-07T12:52:36.455Z,26.48
2017-08-07T12:53:46.331Z,26.65
2017-08-07T12:54:55.534Z,26.67
2017-08-07T12:56:05.086Z,26.87
2017-08-07T12:57:14.663Z,26.91
2017-08-07T12:58:24.860Z,26.81
2017-08-07T12:59:34.418Z,27.02
2017-08-07T13:00:43.864Z,27
2017-08-07T13:01:52.768Z,27.04
2017-08-07T13:03:02.327Z,27.06
2017-08-07T13:04:13.024Z,27.22
2017-08-07T13:05:22.903Z,27.19
2017-08-07T13:06:32.604Z,27.14
2017-08-07T13:07:41.835Z,27.04
2017-08-07T13:08:51.108Z,27.02
2017-08-07T13:10:00.339Z,26.76
2017-08-07T13:11:10.218Z,26.51
2017-08-07T13:12:20.553Z,26.57
2017-08-07T13:13:30.637Z,26.72
2017-08-07T13:14:39.863Z,26.69
2017-08-07T13:15:49.089Z,26.77
2017-08-07T13:16:58.324Z,26.67
2017-08-07T13:18:07.607Z,26.63
2017-08-07T13:19:17.501Z,26.69
2017-08-07T13:20:27.069Z,26.92
2017-08-07T13:21:36.943Z,27.13
2017-08-07T13:22:46.494Z,27.34
2017-08-07T13:23:56.476Z,27.46
2017-08-07T13:25:06.046Z,27.4
2017-08-07T13:26:15.270Z,27.4
2017-08-07T13:27:24.502Z,27.46
2017-08-07T13:28:34.051Z,27.37
2017-08-07T13:29:44.233Z,27.17
2017-08-07T13:30:53.783Z,27.04
2017-08-07T13:32:03.652Z,27.02
2017-08-07T13:33:13.521Z,26.97
2017-08-07T13:34:23.074Z,26.87
2017-08-07T13:35:32.872Z,26.89
2017-08-07T13:36:41.770Z,26.76
2017-08-07T13:37:50.994Z,26.76
2017-08-07T13:38:59.893Z,26.87
2017-08-07T13:40:09.443Z,26.87
2017-08-07T13:41:19.251Z,26.92
2017-08-07T13:42:28.482Z,26.91
2017-08-07T13:43:38.675Z,27.14
2017-08-07T13:44:48.229Z,27.25
2017-08-07T13:45:57.461Z,27.19
2017-08-07T13:47:07.760Z,27.13
2017-08-07T13:48:17.335Z,26.99
2017-08-07T13:49:26.558Z,26.89
2017-08-07T13:50:35.798Z,27.07
2017-08-07T13:51:45.021Z,26.87
2017-08-07T13:52:55.261Z,26.87
2017-08-07T13:54:05.137Z,26.8
2017-08-07T13:55:14.553Z,26.88
2017-08-07T13:56:24.450Z,26.99
2017-08-07T13:57:34.695Z,27.04
2017-08-07T13:58:44.594Z,27.25
2017-08-07T13:59:54.155Z,27.36
2017-08-07T14:01:03.067Z,27.31
2017-08-07T14:02:12.615Z,27.44
2017-08-07T14:03:21.516Z,27.57
2017-08-07T14:04:30.894Z,27.74
2017-08-07T14:05:40.773Z,27.88
2017-08-07T14:06:50.686Z,27.82
2017-08-07T14:07:59.912Z,28.04
2017-08-07T14:09:09.470Z,28.02
2017-08-07T14:10:18.388Z,27.97
2017-08-07T14:11:27.324Z,28.02
2017-08-07T14:12:37.195Z,27.84
2017-08-07T14:13:46.760Z,27.7
2017-08-07T14:14:56.311Z,27.46
2017-08-07T14:16:06.181Z,27.47
2017-08-07T14:17:15.407Z,27.29
2017-08-07T14:18:24.958Z,27.27
2017-08-07T14:19:34.228Z,27.04
2017-08-07T14:20:43.772Z,26.89
2017-08-07T14:21:52.995Z,26.84
2017-08-07T14:23:01.895Z,26.87
2017-08-07T14:24:11.450Z,27.17
2017-08-07T14:25:21.326Z,27.27
2017-08-07T14:26:31.206Z,27.4
2017-08-07T14:27:40.427Z,27.44
2017-08-07T14:28:49.650Z,27.21
2017-08-07T14:29:58.980Z,27.21
2017-08-07T14:31:08.850Z,26.95
2017-08-07T14:32:17.753Z,27.06
2017-08-07T14:33:26.651Z,26.89
2017-08-07T14:34:35.872Z,26.94
2017-08-07T14:35:45.293Z,26.95
2017-08-07T14:36:54.842Z,26.75
2017-08-07T14:38:04.714Z,26.75
2017-08-07T14:39:14.334Z,26.77
2017-08-07T14:40:23.242Z,26.75
2017-08-07T14:41:33.257Z,26.69
2017-08-07T14:42:42.804Z,26.69
2017-08-07T14:43:52.349Z,26.91
2017-08-07T14:45:01.564Z,27.07
2017-08-07T14:46:11.109Z,27.37
2017-08-07T14:47:20.655Z,27.62
2017-08-07T14:48:29.889Z,27.79
2017-08-07T14:49:39.441Z,27.99
2017-08-07T14:50:48.346Z,28.31
2017-08-07T14:51:57.894Z,28.37
2017-08-07T14:53:07.591Z,28.43
2017-08-07T14:54:16.496Z,28.54
2017-08-07T14:55:26.042Z,28.7
2017-08-07T14:56:35.916Z,28.83
2017-08-07T14:57:45.462Z,28.74
2017-08-07T14:58:54.884Z,28.58
2017-08-07T15:00:04.441Z,28.3